createdAt,value
2022-08-29T00:01:05.502Z,25.19
2022-08-29T00:03:33.406Z,25.04
2022-08-29T00:06:00.852Z,25.63
2022-08-29T00:08:28.467Z,25.95
2022-08-29T00:10:55.884Z,26.04
2022-08-29T00:13:23.601Z,26.08
2022-08-29T00:15:51.082Z,24.86
2022-08-29T00:18:20.761Z,25.21
2022-08-29T00:20:49.023Z,25.55
2022-08-29T00:23:16.790Z,25.47
2022-08-29T00:25:44.745Z,25.70
2022-08-29T00:28:12.227Z,25.61
2022-08-29T00:30:40.266Z,25.19
2022-08-29T00:33:08.221Z,25.32
2022-08-29T00:35:39.406Z,25.52
2022-08-29T00:38:12.646Z,25.45
2022-08-29T00:40:44.993Z,25.37
2022-08-29T00:43:27.349Z,25.25
2022-08-29T00:46:09.832Z,25.09
2022-08-29T00:48:39.377Z,25.00
2022-08-29T00:51:20.888Z,25.27
2022-08-29T00:53:53.133Z,24.95
2022-08-29T00:56:21.997Z,24.58
2022-08-29T00:58:55.848Z,24.49
2022-08-29T01:01:25.006Z,24.62
2022-08-29T01:03:53.975Z,24.21
2022-08-29T01:06:22.853Z,24.69
2022-08-29T01:08:57.328Z,24.58
2022-08-29T01:11:46.922Z,24.92
2022-08-29T01:14:16.021Z,24.62
2022-08-29T01:16:43.927Z,24.53
2022-08-29T01:19:46.797Z,25.09
2022-08-29T01:23:21.066Z,-144.19
2022-08-29T01:26:49.451Z,-144.19
2022-08-29T01:30:15.511Z,-144.19
2022-08-29T01:33:49.949Z,-144.19
2022-08-29T01:37:19.859Z,-144.19
2022-08-29T01:40:45.820Z,-144.19
2022-08-29T01:44:13.018Z,-144.19
2022-08-29T01:47:40.282Z,-144.19
2022-08-29T01:51:07.187Z,-144.19
2022-08-29T01:54:33.612Z,-144.19
2022-08-29T01:58:00.092Z,-144.19
2022-08-29T02:01:31.636Z,-144.19
2022-08-29T02:04:58.881Z,-144.19
2022-08-29T02:08:24.753Z,-144.19
2022-08-29T02:11:50.763Z,-144.19
2022-08-29T02:15:19.289Z,-144.19
2022-08-29T02:18:45.537Z,-144.19
2022-08-29T02:22:13.673Z,-144.19
2022-08-29T02:25:43.007Z,-144.19
2022-08-29T02:29:13.644Z,-144.19
2022-08-29T02:32:40.050Z,-144.19
2022-08-29T02:36:07.654Z,-144.19
2022-08-29T02:38:42.034Z,25.09
2022-08-29T02:41:14.040Z,24.24
2022-08-29T02:43:42.760Z,23.64
2022-08-29T02:46:15.762Z,23.28
2022-08-29T02:48:52.275Z,22.85
2022-08-29T02:51:30.901Z,23.45
2022-08-29T02:53:59.161Z,22.84
2022-08-29T02:56:27.364Z,22.80
2022-08-29T02:58:54.703Z,22.57
2022-08-29T03:01:23.531Z,23.61
2022-08-29T03:03:51.314Z,24.01
2022-08-29T03:06:21.158Z,23.34
2022-08-29T03:08:49.082Z,23.53
2022-08-29T03:11:17.517Z,24.05
2022-08-29T03:13:46.107Z,23.64
2022-08-29T03:16:14.115Z,23.23
2022-08-29T03:18:42.398Z,22.95
2022-08-29T03:21:21.525Z,22.62
2022-08-29T03:23:50.036Z,22.47
2022-08-29T03:26:18.422Z,22.97
2022-08-29T03:28:45.916Z,23.53
2022-08-29T03:31:14.884Z,23.75
2022-08-29T03:33:42.900Z,24.27
2022-08-29T03:36:14.111Z,24.12
2022-08-29T03:38:46.684Z,24.35
2022-08-29T03:41:24.557Z,24.59
2022-08-29T03:43:52.174Z,23.68
2022-08-29T03:46:19.570Z,23.57
2022-08-29T03:48:47.777Z,23.16
2022-08-29T03:51:18.164Z,22.81
2022-08-29T03:53:46.292Z,22.50
2022-08-29T03:56:18.305Z,23.53
2022-08-29T03:58:52.114Z,23.88
2022-08-29T04:01:24.925Z,23.84
2022-08-29T04:03:53.388Z,23.96
2022-08-29T04:06:23.484Z,24.00
2022-08-29T04:08:52.053Z,24.12
2022-08-29T04:11:20.529Z,23.76
2022-08-29T04:13:49.527Z,23.50
2022-08-29T04:16:24.896Z,22.76
2022-08-29T04:18:57.937Z,22.19
2022-08-29T04:21:26.191Z,22.76
2022-08-29T04:23:54.895Z,23.22
2022-08-29T04:26:38.193Z,23.12
2022-08-29T04:29:09.051Z,23.27
2022-08-29T04:31:37.923Z,23.03
2022-08-29T04:34:07.557Z,23.08
2022-08-29T04:36:40.033Z,23.77
2022-08-29T04:39:07.588Z,23.24
2022-08-29T04:41:35.890Z,22.65
2022-08-29T04:44:03.794Z,22.24
2022-08-29T04:46:31.443Z,22.43
2022-08-29T04:49:03.760Z,22.51
2022-08-29T04:51:34.754Z,22.56
2022-08-29T04:54:03.192Z,22.56
2022-08-29T04:56:30.695Z,22.37
2022-08-29T04:58:58.377Z,22.58
2022-08-29T05:01:27.415Z,22.41
2022-08-29T05:03:55.622Z,23.17
2022-08-29T05:06:24.520Z,23.40
2022-08-29T05:08:58.740Z,22.97
2022-08-29T05:11:30.549Z,23.18
2022-08-29T05:13:59.757Z,23.17
2022-08-29T05:16:27.685Z,22.93
2022-08-29T05:18:55.426Z,23.36
2022-08-29T05:21:27.315Z,24.70
2022-08-29T05:23:59.543Z,24.53
2022-08-29T05:26:32.285Z,24.09
2022-08-29T05:29:00.703Z,23.67
2022-08-29T05:31:28.224Z,24.23
2022-08-29T05:33:55.726Z,24.91
2022-08-29T05:36:23.226Z,25.11
2022-08-29T05:38:50.623Z,24.49
2022-08-29T05:41:19.406Z,24.05
2022-08-29T05:43:46.867Z,25.01
2022-08-29T05:46:14.661Z,25.25
2022-08-29T05:48:48.222Z,25.46
2022-08-29T05:51:21.187Z,25.02
2022-08-29T05:53:51.426Z,24.76
2022-08-29T05:56:29.486Z,24.00
2022-08-29T05:58:57.453Z,24.28
2022-08-29T06:01:27.959Z,24.23
2022-08-29T06:03:57.592Z,24.52
2022-08-29T06:06:27.845Z,24.57
2022-08-29T06:08:56.418Z,24.86
2022-08-29T06:11:28.027Z,25.29
2022-08-29T06:13:56.252Z,25.39
2022-08-29T06:16:25.125Z,25.57
2022-08-29T06:18:53.366Z,26.00
2022-08-29T06:21:21.111Z,25.97
2022-08-29T06:23:49.148Z,25.69
2022-08-29T06:26:17.926Z,26.19
2022-08-29T06:28:47.625Z,25.64
2022-08-29T06:31:22.756Z,26.57
2022-08-29T06:33:55.468Z,26.96
2022-08-29T06:36:25.623Z,27.25
2022-08-29T06:38:57.721Z,27.00
2022-08-29T06:41:27.024Z,26.80
2022-08-29T06:43:59.013Z,26.23
2022-08-29T06:46:37.051Z,26.42
2022-08-29T06:49:06.921Z,27.23
2022-08-29T06:51:37.829Z,27.40
2022-08-29T06:54:08.637Z,27.27
2022-08-29T06:56:38.194Z,27.24
2022-08-29T06:59:08.410Z,27.38
2022-08-29T07:01:36.336Z,27.80
2022-08-29T07:04:06.491Z,28.31
2022-08-29T07:06:42.505Z,28.73
2022-08-29T07:09:09.998Z,29.20
2022-08-29T07:11:41.250Z,29.19
2022-08-29T07:14:09.211Z,28.39
2022-08-29T07:16:36.869Z,27.99
2022-08-29T07:19:06.449Z,27.69
2022-08-29T07:21:34.315Z,27.37
2022-08-29T07:24:02.188Z,27.89
2022-08-29T07:26:38.114Z,28.60
2022-08-29T07:29:15.225Z,28.61
2022-08-29T07:31:43.149Z,28.13
2022-08-29T07:34:11.401Z,27.68
2022-08-29T07:36:42.390Z,27.73
2022-08-29T07:39:16.602Z,27.89
2022-08-29T07:41:46.503Z,27.77
2022-08-29T07:44:15.084Z,27.95
2022-08-29T07:46:45.439Z,28.11
2022-08-29T07:49:12.936Z,27.78
2022-08-29T07:51:44.231Z,28.10
2022-08-29T07:54:16.964Z,28.09
2022-08-29T07:56:45.201Z,28.03
2022-08-29T07:59:13.290Z,28.07
2022-08-29T08:01:42.608Z,28.28
2022-08-29T08:04:12.730Z,28.21
2022-08-29T08:06:43.852Z,28.10
2022-08-29T08:09:17.618Z,28.09
2022-08-29T08:11:45.058Z,28.66
2022-08-29T08:14:13.245Z,29.53
2022-08-29T08:16:44.380Z,29.91
2022-08-29T08:19:15.703Z,29.76
2022-08-29T08:21:49.820Z,30.20
2022-08-29T08:24:19.950Z,30.80
2022-08-29T08:26:50.414Z,31.36
2022-08-29T08:29:18.294Z,31.14
2022-08-29T08:31:49.807Z,30.46
2022-08-29T08:34:20.374Z,30.31
2022-08-29T08:36:47.914Z,30.66
2022-08-29T08:39:15.849Z,30.10
2022-08-29T08:41:55.047Z,30.69
2022-08-29T08:44:22.387Z,31.25
2022-08-29T08:46:59.698Z,31.89
2022-08-29T08:49:33.226Z,31.45
2022-08-29T08:52:04.483Z,30.50
2022-08-29T08:54:37.016Z,30.06
2022-08-29T08:57:08.979Z,30.25
2022-08-29T08:59:42.941Z,31.47
2022-08-29T09:02:29.121Z,31.87
2022-08-29T09:04:59.112Z,32.33
2022-08-29T09:07:47.595Z,32.19
2022-08-29T09:10:18.832Z,31.53
2022-08-29T09:12:52.057Z,31.63
2022-08-29T09:15:39.413Z,32.17
2022-08-29T09:18:13.541Z,32.52
2022-08-29T09:20:42.517Z,31.86
2022-08-29T09:23:19.437Z,31.31
2022-08-29T09:25:50.667Z,30.85
2022-08-29T09:28:18.687Z,31.67
2022-08-29T09:31:26.476Z,32.23
2022-08-29T09:34:03.217Z,33.00
2022-08-29T09:36:51.649Z,33.68
2022-08-29T09:39:31.978Z,32.68
2022-08-29T09:42:05.353Z,31.62
2022-08-29T09:44:36.980Z,32.46
2022-08-29T09:47:09.017Z,31.58
2022-08-29T09:49:39.679Z,33.35
2022-08-29T09:52:23.789Z,33.90
2022-08-29T09:54:51.324Z,33.33
2022-08-29T09:57:25.461Z,31.87
2022-08-29T10:00:28.984Z,31.26
2022-08-29T10:02:59.988Z,32.60
2022-08-29T10:05:32.107Z,32.02
2022-08-29T10:08:02.030Z,31.74
2022-08-29T10:10:33.424Z,31.52
2022-08-29T10:13:12.982Z,31.13
2022-08-29T10:15:59.253Z,31.13
2022-08-29T10:18:59.190Z,31.42
2022-08-29T10:22:02.614Z,31.15
2022-08-29T10:24:38.985Z,31.73
2022-08-29T10:27:50.542Z,31.41
2022-08-29T10:30:22.844Z,31.30
2022-08-29T10:33:10.383Z,31.75
2022-08-29T10:35:58.513Z,32.02
2022-08-29T10:38:25.985Z,31.40
2022-08-29T10:41:04.694Z,31.67
2022-08-29T10:43:52.063Z,31.15
2022-08-29T10:46:49.256Z,32.34
2022-08-29T10:49:39.803Z,32.91
2022-08-29T10:52:46.227Z,32.63
2022-08-29T10:55:36.299Z,32.11
2022-08-29T10:58:12.276Z,32.57
2022-08-29T11:00:47.846Z,32.56
2022-08-29T11:03:33.340Z,31.44
2022-08-29T11:06:18.373Z,30.55
2022-08-29T11:08:58.329Z,31.06
2022-08-29T11:11:30.261Z,32.17
2022-08-29T11:14:05.952Z,33.26
2022-08-29T11:16:38.960Z,33.74
2022-08-29T11:19:14.066Z,32.61
2022-08-29T11:21:49.805Z,31.32
2022-08-29T11:24:19.067Z,31.54
2022-08-29T11:27:10.358Z,32.11
2022-08-29T11:30:02.869Z,32.75
2022-08-29T11:32:57.107Z,32.13
2022-08-29T11:35:57.257Z,31.74
2022-08-29T11:38:38.655Z,31.79
2022-08-29T11:41:27.589Z,33.30
2022-08-29T11:44:05.115Z,33.07
2022-08-29T11:46:49.401Z,33.01
2022-08-29T11:49:37.393Z,31.56
2022-08-29T11:52:11.371Z,30.99
2022-08-29T11:54:42.169Z,30.38
2022-08-29T11:57:09.444Z,30.24
2022-08-29T11:59:53.325Z,30.68
2022-08-29T12:02:34.289Z,30.72
2022-08-29T12:05:17.093Z,30.84
2022-08-29T12:08:26.360Z,30.65
2022-08-29T12:10:56.793Z,31.18
2022-08-29T12:13:43.455Z,31.03
2022-08-29T12:16:12.475Z,31.07
2022-08-29T12:18:44.972Z,31.12
2022-08-29T12:21:38.660Z,30.39
2022-08-29T12:24:28.297Z,31.09
2022-08-29T12:26:56.246Z,30.99
2022-08-29T12:29:31.501Z,31.47
2022-08-29T12:32:22.548Z,32.04
2022-08-29T12:35:11.149Z,32.05
2022-08-29T12:37:54.092Z,32.06
2022-08-29T12:40:42.806Z,31.99
2022-08-29T12:43:30.097Z,32.35
2022-08-29T12:45:58.892Z,32.51
2022-08-29T12:48:43.806Z,32.35
2022-08-29T12:51:41.387Z,32.86
2022-08-29T12:54:11.702Z,32.51
2022-08-29T12:56:44.159Z,31.53
2022-08-29T12:59:19.392Z,32.68
2022-08-29T13:01:50.269Z,32.90
2022-08-29T13:04:31.927Z,33.04
2022-08-29T13:07:07.622Z,32.18
2022-08-29T13:09:59.400Z,32.28
2022-08-29T13:12:29.748Z,31.80
2022-08-29T13:15:00.646Z,32.00
2022-08-29T13:17:35.178Z,32.39
2022-08-29T13:20:41.102Z,32.28
2022-08-29T13:23:16.559Z,32.42
2022-08-29T13:25:47.407Z,32.13
2022-08-29T13:28:23.206Z,32.23
2022-08-29T13:31:12.110Z,32.82
2022-08-29T13:33:54.066Z,32.48
2022-08-29T13:36:27.513Z,31.52
2022-08-29T13:39:25.153Z,31.13
2022-08-29T13:42:09.876Z,30.85
2022-08-29T13:44:37.215Z,31.27
2022-08-29T13:47:21.066Z,31.50
2022-08-29T13:49:50.563Z,31.67
2022-08-29T13:52:20.139Z,31.12
2022-08-29T13:54:47.590Z,30.82
2022-08-29T13:57:19.230Z,30.50
2022-08-29T13:59:47.447Z,31.35
2022-08-29T14:02:15.321Z,31.15
2022-08-29T14:04:48.178Z,30.94
2022-08-29T14:07:31.294Z,30.37
2022-08-29T14:09:59.385Z,30.48
2022-08-29T14:12:33.505Z,30.08
2022-08-29T14:15:09.338Z,30.08
2022-08-29T14:17:40.677Z,30.46
2022-08-29T14:20:12.795Z,30.66
2022-08-29T14:22:40.916Z,30.90
2022-08-29T14:25:13.012Z,30.52
2022-08-29T14:27:41.312Z,30.18
2022-08-29T14:30:10.787Z,30.16
2022-08-29T14:32:38.717Z,30.24
2022-08-29T14:35:07.519Z,30.58
2022-08-29T14:37:35.625Z,30.65
2022-08-29T14:40:04.496Z,30.07
2022-08-29T14:42:33.613Z,30.76
2022-08-29T14:45:01.754Z,30.23
2022-08-29T14:47:29.166Z,29.93
2022-08-29T14:49:56.551Z,29.93
2022-08-29T14:52:24.108Z,30.17
2022-08-29T14:54:52.437Z,29.97
2022-08-29T14:57:19.840Z,30.39
2022-08-29T14:59:48.328Z,30.25
2022-08-29T15:02:15.939Z,30.68
2022-08-29T15:04:43.450Z,29.85
2022-08-29T15:07:12.819Z,29.17
2022-08-29T15:09:42.058Z,28.94
2022-08-29T15:12:11.606Z,29.06
2022-08-29T15:14:39.495Z,28.90
2022-08-29T15:17:08.091Z,28.87
2022-08-29T15:22:28.089Z,28.34
2022-08-29T15:24:55.778Z,28.10
2022-08-29T15:27:27.393Z,28.41
2022-08-29T15:29:56.685Z,28.22
2022-08-29T15:32:27.361Z,28.23
2022-08-29T15:34:54.830Z,28.22
2022-08-29T15:37:22.542Z,28.22
2022-08-29T15:39:54.394Z,28.71
2022-08-29T15:42:28.819Z,28.73
2022-08-29T15:44:58.343Z,29.51
2022-08-29T15:47:26.416Z,29.89
2022-08-29T15:49:56.035Z,27.73
2022-08-29T15:52:25.598Z,25.97
2022-08-29T15:54:53.465Z,24.79
2022-08-29T15:57:21.320Z,24.13
2022-08-29T16:00:04.061Z,24.11
2022-08-29T16:02:39.053Z,24.13
2022-08-29T16:05:07.290Z,24.15
2022-08-29T16:07:34.764Z,24.31
2022-08-29T16:10:04.719Z,24.43
2022-08-29T16:12:38.253Z,24.45
2022-08-29T16:15:09.654Z,23.97
2022-08-29T16:17:37.675Z,22.46
2022-08-29T16:20:10.962Z,21.21
2022-08-29T16:22:40.666Z,20.88
2022-08-29T16:25:11.440Z,20.73
2022-08-29T16:27:38.817Z,20.93
2022-08-29T16:31:05.797Z,-144.19
2022-08-29T16:34:32.063Z,-144.19
2022-08-29T16:38:02.086Z,-144.19
2022-08-29T16:41:29.267Z,-144.19
2022-08-29T16:44:55.245Z,-144.19
2022-08-29T16:48:22.686Z,-144.19
2022-08-29T16:51:48.943Z,-144.19
2022-08-29T16:55:15.097Z,-144.19
2022-08-29T16:59:00.433Z,-144.19
2022-08-29T17:02:28.384Z,-144.19
2022-08-29T17:05:54.234Z,-144.19
2022-08-29T17:09:21.204Z,-144.19
2022-08-29T17:12:47.294Z,-144.19
2022-08-29T17:16:13.858Z,-144.19
2022-08-29T17:19:40.109Z,-144.19
2022-08-29T17:23:10.212Z,-144.19
2022-08-29T17:26:40.734Z,-144.19
2022-08-29T17:30:07.500Z,-144.19
2022-08-29T17:33:34.249Z,-144.19
2022-08-29T17:37:01.802Z,-144.19
2022-08-29T17:40:27.689Z,-144.19
2022-08-29T17:43:53.903Z,-144.19
2022-08-29T17:47:21.079Z,-144.19
2022-08-29T17:50:49.016Z,-144.19
2022-08-29T17:54:15.803Z,-144.19
2022-08-29T17:57:45.127Z,-144.19
2022-08-29T18:01:16.263Z,-144.19
2022-08-29T18:04:43.188Z,-144.19
2022-08-29T18:08:09.208Z,-144.19
2022-08-29T18:11:39.744Z,-144.19
2022-08-29T18:15:09.539Z,-144.19
2022-08-29T18:18:37.370Z,-144.19
2022-08-29T18:22:04.185Z,-144.19
2022-08-29T18:25:30.428Z,-144.19
2022-08-29T18:28:56.605Z,-144.19
2022-08-29T18:32:24.562Z,-144.19
2022-08-29T18:35:50.564Z,-144.19
2022-08-29T18:39:17.294Z,-144.19
2022-08-29T18:42:43.380Z,-144.19
2022-08-29T18:46:09.984Z,-144.19
2022-08-29T18:49:54.453Z,-144.19
2022-08-29T18:53:21.529Z,-144.19
2022-08-29T18:56:48.285Z,-144.19
2022-08-29T19:00:16.238Z,-144.19
2022-08-29T19:03:42.400Z,-144.19
2022-08-29T19:07:09.600Z,-144.19
2022-08-29T19:10:35.890Z,-144.19
2022-08-29T19:14:01.892Z,-144.19
2022-08-29T19:17:27.856Z,-144.19
2022-08-29T19:21:02.661Z,-144.19
2022-08-29T19:24:29.764Z,-144.19
2022-08-29T19:27:56.092Z,-144.19
2022-08-29T19:31:22.946Z,-144.19
2022-08-29T19:34:50.979Z,-144.19
2022-08-29T19:38:19.870Z,-144.19
2022-08-29T19:41:45.666Z,-144.19
2022-08-29T19:45:12.699Z,-144.19
2022-08-29T19:48:39.520Z,-144.19
2022-08-29T19:52:10.297Z,-144.19
2022-08-29T19:55:37.396Z,-144.19
2022-08-29T19:59:03.509Z,-144.19
2022-08-29T20:02:29.709Z,-144.19
2022-08-29T20:05:55.973Z,-144.19
2022-08-29T20:09:21.868Z,-144.19
2022-08-29T20:12:51.854Z,-144.19
2022-08-29T20:16:21.380Z,-144.19
2022-08-29T20:19:49.699Z,-144.19
2022-08-29T20:23:16.365Z,-144.19
2022-08-29T20:26:42.545Z,-144.19
2022-08-29T20:30:12.053Z,-144.19
2022-08-29T20:33:41.251Z,-144.19
2022-08-29T20:37:10.735Z,-144.19
2022-08-29T20:40:46.870Z,-144.19
2022-08-29T20:44:18.502Z,-144.19
2022-08-29T20:47:44.578Z,-144.19
2022-08-29T20:51:10.860Z,-144.19
2022-08-29T20:54:39.044Z,-144.19
2022-08-29T20:58:05.685Z,-144.19
2022-08-29T21:01:32.099Z,-144.19
2022-08-29T21:05:16.442Z,-144.19
2022-08-29T21:08:44.263Z,-144.19
2022-08-29T21:12:11.663Z,-144.19
2022-08-29T21:15:38.221Z,-144.19
2022-08-29T21:19:09.033Z,-144.19
2022-08-29T21:22:35.911Z,-144.19
2022-08-29T21:26:02.152Z,-144.19
2022-08-29T21:29:29.221Z,-144.19
2022-08-29T21:32:55.708Z,-144.19
2022-08-29T21:36:25.996Z,-144.19
2022-08-29T21:39:56.380Z,-144.19
2022-08-29T21:43:22.364Z,-144.19
2022-08-29T21:46:48.842Z,-144.19
2022-08-29T21:50:16.737Z,-144.19
2022-08-29T21:53:42.647Z,-144.19
2022-08-29T21:57:17.593Z,-144.19
2022-08-29T22:00:45.393Z,-144.19
2022-08-29T22:04:19.200Z,-144.19
2022-08-29T22:07:54.047Z,-144.19
2022-08-29T22:11:29.465Z,-144.19
2022-08-29T22:15:22.515Z,-144.19
2022-08-29T22:18:48.519Z,-144.19
2022-08-29T22:22:14.417Z,-144.19
2022-08-29T22:25:40.466Z,-144.19
2022-08-29T22:29:08.328Z,-144.19
2022-08-29T22:32:38.028Z,-144.19
2022-08-29T22:36:07.541Z,-144.19
2022-08-29T22:47:20.579Z,19.96
2022-08-29T22:49:48.153Z,19.95
2022-08-29T22:52:15.564Z,19.92
2022-08-29T22:54:45.853Z,19.86
2022-08-29T22:57:18.518Z,19.95
2022-08-29T22:59:47.052Z,19.86
2022-08-29T23:02:14.492Z,19.86
2022-08-29T23:04:42.948Z,19.85
2022-08-29T23:07:11.744Z,19.75
2022-08-29T23:09:41.686Z,19.75
2022-08-29T23:12:10.476Z,19.58
2022-08-29T23:14:38.729Z,19.60
2022-08-29T23:17:07.981Z,19.64
2022-08-29T23:19:37.146Z,19.67
2022-08-29T23:22:10.343Z,19.58
2022-08-29T23:24:39.427Z,19.46
2022-08-29T23:27:09.035Z,19.62
2022-08-29T23:29:41.954Z,19.93
2022-08-29T23:32:09.536Z,19.71
2022-08-29T23:34:36.874Z,19.87
2022-08-29T23:37:04.593Z,19.82
2022-08-29T23:39:32.163Z,19.70
2022-08-29T23:41:59.917Z,19.75
2022-08-29T23:44:28.962Z,19.73
2022-08-29T23:46:56.901Z,19.71
2022-08-29T23:49:24.625Z,19.65
2022-08-29T23:51:52.005Z,19.59
2022-08-29T23:54:19.719Z,19.51
2022-08-29T23:56:47.099Z,19.55
2022-08-29T23:59:34.365Z,19.40
